createdAt,value
2023-04-25T00:00:26.798Z,10.7
2023-04-25T00:02:53.485Z,10.6
2023-04-25T00:05:20.169Z,10.6
2023-04-25T00:07:46.870Z,10.6
2023-04-25T00:10:12.079Z,10.5
2023-04-25T00:12:38.752Z,10.5
2023-04-25T00:15:05.462Z,10.5
2023-04-25T00:17:32.133Z,10.5
2023-04-25T00:19:58.837Z,10.5
2023-04-25T00:22:25.504Z,10.5
2023-04-25T00:24:52.189Z,10.5
2023-04-25T00:27:18.861Z,10.5
2023-04-25T00:29:45.541Z,10.5
2023-04-25T00:32:12.243Z,10.5
2023-04-25T00:34:38.904Z,10.5
2023-04-25T00:39:32.290Z,10.5
2023-04-25T00:41:57.515Z,10.5
2023-04-25T00:44:24.193Z,10.5
2023-04-25T00:46:50.881Z,10.5
2023-04-25T00:49:17.567Z,10.4
2023-04-25T00:51:44.258Z,10.4
2023-04-25T00:54:10.942Z,10.4
2023-04-25T00:56:37.620Z,10.4
2023-04-25T00:59:04.303Z,10.4
2023-04-25T01:01:30.993Z,10.4
2023-04-25T01:03:57.664Z,10.4
2023-04-25T01:06:24.367Z,10.4
2023-04-25T01:08:51.037Z,10.4
2023-04-25T01:11:17.729Z,10.4
2023-04-25T01:13:42.939Z,10.3
2023-04-25T01:16:09.629Z,10.3
2023-04-25T01:18:36.338Z,10.3
2023-04-25T01:21:03.027Z,10.3
2023-04-25T01:23:29.677Z,10.3
2023-04-25T01:25:56.365Z,10.3
2023-04-25T01:28:23.080Z,10.3
2023-04-25T01:30:49.731Z,10.3
2023-04-25T01:33:16.425Z,10.3
2023-04-25T01:35:43.116Z,10.3
2023-04-25T01:38:09.789Z,10.2
2023-04-25T01:40:36.507Z,10.2
2023-04-25T01:43:03.188Z,10.2
2023-04-25T01:45:28.381Z,10.2
2023-04-25T01:47:55.066Z,10.2
2023-04-25T01:50:21.728Z,10.2
2023-04-25T01:52:48.439Z,10.2
2023-04-25T01:55:15.112Z,10.2
2023-04-25T01:57:41.792Z,10.2
2023-04-25T02:00:08.485Z,10.2
2023-04-25T02:02:35.170Z,10.2
2023-04-25T02:05:01.860Z,10.2
2023-04-25T02:07:28.528Z,10.2
2023-04-25T02:09:55.212Z,10.1
2023-04-25T02:12:21.925Z,10.1
2023-04-25T02:14:48.606Z,10.1
2023-04-25T02:17:13.843Z,10.1
2023-04-25T02:19:40.494Z,10.1
2023-04-25T02:22:07.200Z,10.1
2023-04-25T02:24:33.861Z,10
2023-04-25T02:27:00.585Z,10
2023-04-25T02:29:27.232Z,10
2023-04-25T02:31:53.914Z,10
2023-04-25T02:34:20.609Z,10
2023-04-25T02:36:47.299Z,10
2023-04-25T02:39:13.978Z,10
2023-04-25T02:41:40.710Z,10
2023-04-25T02:44:07.342Z,9.9
2023-04-25T02:46:34.038Z,9.9
2023-04-25T02:48:59.248Z,9.9
2023-04-25T02:51:25.934Z,9.9
2023-04-25T02:53:52.824Z,9.9
2023-04-25T02:56:19.369Z,9.8
2023-04-25T02:58:45.991Z,9.8
2023-04-25T03:01:12.681Z,9.8
2023-04-25T03:03:39.393Z,9.8
2023-04-25T03:06:06.048Z,9.8
2023-04-25T03:08:32.734Z,9.8
2023-04-25T03:10:59.415Z,9.8
2023-04-25T03:15:52.784Z,9.7
2023-04-25T03:18:19.466Z,9.7
2023-04-25T03:20:46.204Z,9.7
2023-04-25T03:23:11.378Z,9.7
2023-04-25T03:25:38.052Z,9.7
2023-04-25T03:28:04.757Z,9.7
2023-04-25T03:30:31.428Z,9.7
2023-04-25T03:32:58.109Z,9.6
2023-04-25T03:35:24.784Z,9.6
2023-04-25T03:37:51.476Z,9.6
2023-04-25T03:40:18.171Z,9.6
2023-04-25T03:42:44.841Z,9.5
2023-04-25T03:45:11.551Z,9.5
2023-04-25T03:47:38.215Z,9.5
2023-04-25T03:50:04.913Z,9.5
2023-04-25T03:52:31.594Z,9.5
2023-04-25T03:54:56.821Z,9.5
2023-04-25T03:57:23.497Z,9.5
2023-04-25T03:59:50.207Z,9.5
2023-04-25T04:02:16.868Z,9.5
2023-04-25T04:04:43.564Z,9.5
2023-04-25T04:07:10.236Z,9.5
2023-04-25T04:09:36.924Z,9.5
2023-04-25T04:12:03.594Z,9.5
2023-04-25T04:14:30.298Z,9.5
2023-04-25T04:16:56.973Z,9.5
2023-04-25T04:19:23.659Z,9.5
2023-04-25T04:21:50.349Z,9.5
2023-04-25T04:24:17.023Z,9.5
2023-04-25T04:26:42.248Z,9.5
2023-04-25T04:29:08.935Z,9.5
2023-04-25T04:31:35.613Z,9.5
2023-04-25T04:34:02.293Z,9.5
2023-04-25T04:36:28.990Z,9.5
2023-04-25T04:38:55.675Z,9.5
2023-04-25T04:41:22.355Z,9.5
2023-04-25T04:43:49.117Z,9.5
2023-04-25T04:46:15.736Z,9.5
2023-04-25T04:48:42.428Z,9.5
2023-04-25T04:51:09.098Z,9.5
2023-04-25T04:53:35.787Z,9.5
2023-04-25T04:56:02.468Z,9.5
2023-04-25T04:58:27.692Z,9.5
2023-04-25T05:00:54.374Z,9.5
2023-04-25T05:03:21.055Z,9.5
2023-04-25T05:05:47.748Z,9.5
2023-04-25T05:08:14.433Z,9.5
2023-04-25T05:10:41.110Z,9.5
2023-04-25T05:13:07.802Z,9.5
2023-04-25T05:15:34.495Z,9.5
2023-04-25T05:18:01.163Z,9.5
2023-04-25T05:20:27.875Z,9.5
2023-04-25T05:22:54.560Z,9.5
2023-04-25T05:25:21.224Z,9.5
2023-04-25T05:27:47.895Z,9.5
2023-04-25T05:30:13.132Z,9.5
2023-04-25T05:32:39.815Z,9.5
2023-04-25T05:35:06.582Z,9.6
2023-04-25T05:37:33.191Z,9.6
2023-04-25T05:39:59.870Z,9.6
2023-04-25T05:42:26.561Z,9.6
2023-04-25T05:44:53.237Z,9.7
2023-04-25T05:47:19.964Z,9.7
2023-04-25T05:49:46.595Z,9.7
2023-04-25T05:52:13.293Z,9.8
2023-04-25T05:54:40.026Z,9.8
2023-04-25T05:57:06.669Z,9.9
2023-04-25T05:59:33.343Z,9.9
2023-04-25T06:02:00.025Z,10
2023-04-25T06:04:25.240Z,10
2023-04-25T06:06:51.930Z,10
2023-04-25T06:09:18.614Z,10.1
2023-04-25T06:11:45.303Z,10.1
2023-04-25T06:14:11.983Z,10.1
2023-04-25T06:16:38.654Z,10.2
2023-04-25T06:19:05.393Z,10.2
2023-04-25T06:21:32.039Z,10.2
2023-04-25T06:23:58.719Z,10.2
2023-04-25T06:26:25.400Z,10.3
2023-04-25T06:28:52.098Z,10.3
2023-04-25T06:31:18.794Z,10.3
2023-04-25T06:33:45.490Z,10.3
2023-04-25T06:36:10.665Z,10.3
2023-04-25T06:38:37.392Z,10.3
2023-04-25T06:41:04.042Z,10.3
2023-04-25T06:43:30.754Z,10.4
2023-04-25T06:45:57.415Z,10.4
2023-04-25T06:48:24.158Z,10.4
2023-04-25T06:50:50.787Z,10.4
2023-04-25T06:53:17.520Z,10.5
2023-04-25T06:55:44.155Z,10.5
2023-04-25T06:58:10.842Z,10.5
2023-04-25T07:00:37.521Z,10.6
2023-04-25T07:03:04.201Z,10.6
2023-04-25T07:05:30.899Z,10.7
2023-04-25T07:07:56.116Z,10.7
2023-04-25T07:10:22.814Z,10.8
2023-04-25T07:12:49.491Z,10.9
2023-04-25T07:15:14.721Z,10.9
2023-04-25T07:17:41.419Z,11
2023-04-25T07:20:08.119Z,11
2023-04-25T07:22:34.789Z,11.1
2023-04-25T07:25:01.469Z,11.1
2023-04-25T07:27:28.171Z,11.1
2023-04-25T07:29:54.843Z,11.2
2023-04-25T07:32:21.516Z,11.2
2023-04-25T07:34:48.209Z,11.3
2023-04-25T07:37:14.964Z,11.3
2023-04-25T07:39:41.686Z,11.3
2023-04-25T07:42:08.339Z,11.3
2023-04-25T07:47:01.631Z,11.4
2023-04-25T07:49:26.887Z,11.4
2023-04-25T07:51:53.541Z,11.4
2023-04-25T07:54:20.226Z,11.4
2023-04-25T07:56:46.909Z,11.4
2023-04-25T07:59:13.592Z,11.4
2023-04-25T08:01:40.285Z,11.4
2023-04-25T08:04:06.983Z,11.4
2023-04-25T08:06:33.642Z,11.4
2023-04-25T08:09:00.333Z,11.4
2023-04-25T08:11:27.012Z,11.4
2023-04-25T08:13:53.699Z,11.4
2023-04-25T08:16:20.381Z,11.4
2023-04-25T08:18:47.107Z,11.4
2023-04-25T08:21:12.380Z,11.4
2023-04-25T08:23:38.979Z,11.4
2023-04-25T08:26:05.667Z,11.4
2023-04-25T08:28:32.338Z,11.4
2023-04-25T08:30:59.041Z,11.4
2023-04-25T08:33:25.758Z,11.4
2023-04-25T08:35:52.423Z,11.4
2023-04-25T08:38:19.089Z,11.4
2023-04-25T08:40:45.770Z,11.4
2023-04-25T08:43:12.528Z,11.4
2023-04-25T08:45:39.348Z,11.4
2023-04-25T08:48:06.017Z,11.4
2023-04-25T08:50:32.670Z,11.4
2023-04-25T08:52:57.965Z,11.4
2023-04-25T08:55:24.579Z,11.4
2023-04-25T08:57:51.273Z,11.4
2023-04-25T09:00:17.772Z,11.4
2023-04-25T09:02:44.646Z,11.4
2023-04-25T09:05:11.363Z,11.4
2023-04-25T09:07:38.045Z,11.4
2023-04-25T09:10:04.747Z,11.3
2023-04-25T09:12:31.379Z,11.3
2023-04-25T09:14:58.075Z,11.3
2023-04-25T09:17:24.715Z,11.3
2023-04-25T09:19:51.464Z,11.3
2023-04-25T09:22:17.934Z,11.3
2023-04-25T09:24:43.293Z,11.3
2023-04-25T09:27:10.013Z,11.3
2023-04-25T09:29:36.753Z,11.3
2023-04-25T09:32:03.374Z,11.3
2023-04-25T09:34:29.902Z,11.3
2023-04-25T09:36:56.616Z,11.3
2023-04-25T09:39:23.350Z,11.3
2023-04-25T09:41:50.107Z,11.4
2023-04-25T09:44:16.637Z,11.4
2023-04-25T09:46:43.317Z,11.4
2023-04-25T09:49:10.195Z,11.4
2023-04-25T09:51:36.912Z,11.4
2023-04-25T09:54:03.390Z,11.4
2023-04-25T09:56:28.719Z,11.4
2023-04-25T09:58:55.481Z,11.4
2023-04-25T10:01:21.970Z,11.4
2023-04-25T10:03:48.663Z,11.4
2023-04-25T10:06:15.372Z,11.4
2023-04-25T10:08:42.085Z,11.4
2023-04-25T10:11:08.718Z,11.4
2023-04-25T10:13:35.439Z,11.4
2023-04-25T10:16:02.083Z,11.5
2023-04-25T10:18:28.783Z,11.5
2023-04-25T10:20:55.483Z,11.5
2023-04-25T10:23:22.159Z,11.5
2023-04-25T10:25:48.808Z,11.5
2023-04-25T10:28:14.027Z,11.5
2023-04-25T10:30:40.735Z,11.5
2023-04-25T10:33:07.421Z,11.5
2023-04-25T10:35:34.086Z,11.5
2023-04-25T10:38:00.842Z,11.5
2023-04-25T10:40:27.457Z,11.5
2023-04-25T10:42:54.149Z,11.5
2023-04-25T10:45:20.836Z,11.4
2023-04-25T10:47:47.509Z,11.4
2023-04-25T10:50:14.183Z,11.4
2023-04-25T10:52:41.175Z,11.4
2023-04-25T10:55:07.741Z,11.4
2023-04-25T10:57:34.409Z,11.4
2023-04-25T11:00:01.124Z,11.4
2023-04-25T11:02:26.329Z,11.4
2023-04-25T11:04:53.019Z,11.3
2023-04-25T11:07:19.723Z,11.3
2023-04-25T11:09:46.394Z,11.3
2023-04-25T11:12:13.160Z,11.2
2023-04-25T11:14:39.758Z,11.1
2023-04-25T11:17:06.467Z,11
2023-04-25T11:19:33.152Z,11
2023-04-25T11:21:59.770Z,11
2023-04-25T11:24:26.482Z,10.9
2023-04-25T11:26:53.163Z,10.9
2023-04-25T11:29:19.823Z,10.9
2023-04-25T11:31:46.380Z,10.9
2023-04-25T11:34:11.570Z,10.8
2023-04-25T11:36:38.432Z,10.8
2023-04-25T11:39:06.362Z,10.8
2023-04-25T11:41:31.841Z,10.8
2023-04-25T11:43:59.066Z,10.8
2023-04-25T11:46:25.182Z,10.8
2023-04-25T11:48:51.876Z,10.8
2023-04-25T11:51:18.547Z,10.8
2023-04-25T11:53:45.284Z,10.8
2023-04-25T11:56:11.983Z,10.9
2023-04-25T11:58:38.576Z,10.9
2023-04-25T12:01:05.386Z,10.9
2023-04-25T12:03:32.002Z,10.9
2023-04-25T12:05:57.194Z,23.9
2023-04-25T12:08:23.905Z,23.9
2023-04-25T12:10:50.653Z,23.9
2023-04-25T12:13:17.377Z,23.9
2023-04-25T12:15:43.955Z,23.9
2023-04-25T12:18:10.576Z,23.9
2023-04-25T12:20:37.317Z,23.9
2023-04-25T12:23:03.994Z,23.9
2023-04-25T12:25:30.675Z,23.9
2023-04-25T12:27:57.322Z,23.9
2023-04-25T12:30:24.090Z,23.9
2023-04-25T12:32:50.681Z,23.9
2023-04-25T12:35:17.465Z,23.9
2023-04-25T12:37:42.678Z,23.9
2023-04-25T12:40:09.314Z,23.9
2023-04-25T12:42:35.843Z,23.9
2023-04-25T12:45:02.689Z,23.9
2023-04-25T12:47:29.374Z,23.9
2023-04-25T12:49:56.141Z,23.9
2023-04-25T12:52:22.760Z,23.9
2023-04-25T12:54:49.279Z,23.9
2023-04-25T12:57:16.132Z,23.9
2023-04-25T12:59:42.790Z,23.9
2023-04-25T13:02:09.446Z,23.9
2023-04-25T13:04:36.012Z,23.9
2023-04-25T13:07:02.856Z,23.9
2023-04-25T13:09:28.095Z,23.9
2023-04-25T13:11:54.774Z,23.9
2023-04-25T13:14:21.474Z,23.9
2023-04-25T13:16:48.142Z,23.9
2023-04-25T13:19:14.817Z,23.9
2023-04-25T13:21:41.332Z,23.9
2023-04-25T13:24:08.139Z,23.9
2023-04-25T13:26:34.867Z,23.9
2023-04-25T13:29:01.554Z,23.9
2023-04-25T13:31:28.223Z,23.9
2023-04-25T13:33:54.907Z,23.9
2023-04-25T13:36:21.440Z,23.9
2023-04-25T13:38:48.198Z,23.9
2023-04-25T13:41:13.339Z,23.9
2023-04-25T13:43:40.058Z,23.9
2023-04-25T13:46:06.823Z,23.9
2023-04-25T13:48:33.390Z,23.9
2023-04-25T13:51:00.139Z,23.9
2023-04-25T13:53:26.812Z,23.9
2023-04-25T13:55:53.454Z,23.9
2023-04-25T13:58:20.194Z,23.9
2023-04-25T14:00:46.833Z,23.9
2023-04-25T14:03:13.642Z,23.9
2023-04-25T14:05:40.175Z,23.9
2023-04-25T14:08:06.853Z,23.9
2023-04-25T14:10:33.569Z,23.9
2023-04-25T14:12:58.761Z,23.9
2023-04-25T14:15:25.579Z,23.9
2023-04-25T14:17:52.149Z,23.9
2023-04-25T14:20:18.816Z,23.9
2023-04-25T14:22:45.518Z,23.9
2023-04-25T14:25:12.193Z,23.9
2023-04-25T14:27:38.886Z,23.9
2023-04-25T14:30:05.591Z,23.9
2023-04-25T14:32:32.355Z,23.9
2023-04-25T14:34:59.106Z,23.9
2023-04-25T14:37:25.635Z,23.9
2023-04-25T14:39:52.326Z,23.9
2023-04-25T14:42:18.992Z,23.9
2023-04-25T14:44:44.268Z,23.9
2023-04-25T14:47:10.936Z,23.9
2023-04-25T14:49:37.700Z,23.9
2023-04-25T14:52:04.283Z,23.9
2023-04-25T14:54:30.954Z,23.9
2023-04-25T14:56:57.682Z,23.9
2023-04-25T14:59:24.324Z,23.9
2023-04-25T15:01:51.185Z,23.9
2023-04-25T15:04:17.825Z,23.9
2023-04-25T15:06:44.373Z,23.9
2023-04-25T15:09:11.218Z,23.9
2023-04-25T15:11:37.754Z,23.9
2023-04-25T15:14:04.460Z,23.9
2023-04-25T15:16:29.705Z,23.9
2023-04-25T15:18:56.496Z,23.9
2023-04-25T15:21:23.159Z,23.9
2023-04-25T15:23:49.809Z,23.9
2023-04-25T15:26:15.110Z,23.9
2023-04-25T15:28:41.667Z,23.9
2023-04-25T15:31:08.446Z,23.9
2023-04-25T15:33:35.113Z,23.9
2023-04-25T15:36:01.733Z,23.9
2023-04-25T15:38:28.423Z,23.9
2023-04-25T15:40:55.214Z,23.9
2023-04-25T15:43:21.801Z,23.9
2023-04-25T15:45:48.434Z,23.9
2023-04-25T15:48:15.232Z,23.9
2023-04-25T15:50:41.941Z,23.9
2023-04-25T15:53:08.585Z,23.9
2023-04-25T15:55:35.274Z,23.9
2023-04-25T15:58:01.854Z,23.9
2023-04-25T16:00:28.628Z,23.9
2023-04-25T16:02:53.846Z,23.9
2023-04-25T16:05:20.622Z,23.9
2023-04-25T16:07:47.178Z,23.9
2023-04-25T16:10:13.818Z,23.9
2023-04-25T16:12:40.528Z,23.9
2023-04-25T16:15:07.210Z,23.9
2023-04-25T16:17:33.884Z,23.9
2023-04-25T16:20:00.569Z,23.9
2023-04-25T16:22:27.337Z,23.9
2023-04-25T16:24:54.022Z,23.9
2023-04-25T16:27:20.631Z,23.9
2023-04-25T16:29:47.304Z,23.9
2023-04-25T16:32:13.988Z,23.9
2023-04-25T16:34:39.266Z,23.9
2023-04-25T16:37:05.916Z,23.9
2023-04-25T16:39:32.630Z,23.9
2023-04-25T16:41:59.271Z,23.9
2023-04-25T16:44:25.947Z,23.9
2023-04-25T16:46:52.649Z,23.9
2023-04-25T16:49:19.403Z,23.9
2023-04-25T16:51:46.094Z,23.9
2023-04-25T16:54:12.754Z,23.9
2023-04-25T16:56:39.440Z,23.9
2023-04-25T16:59:06.188Z,23.9
2023-04-25T17:01:32.841Z,23.9
2023-04-25T17:03:59.477Z,23.9
2023-04-25T17:06:24.694Z,23.9
2023-04-25T17:08:51.367Z,23.9
2023-04-25T17:11:18.023Z,23.9
2023-04-25T17:13:44.698Z,23.9
2023-04-25T17:16:11.408Z,23.9
2023-04-25T17:18:38.084Z,23.9
2023-04-25T17:21:04.773Z,23.9
2023-04-25T17:23:31.644Z,23.9
2023-04-25T17:25:58.329Z,23.9
2023-04-25T17:28:24.843Z,23.9
2023-04-25T17:30:51.579Z,23.9
2023-04-25T17:33:18.234Z,23.9
2023-04-25T17:35:44.891Z,23.9
2023-04-25T17:38:10.088Z,23.9
2023-04-25T17:40:36.866Z,23.9
2023-04-25T17:43:03.452Z,23.9
2023-04-25T17:45:30.149Z,23.9
2023-04-25T17:47:56.840Z,23.9
2023-04-25T17:50:23.516Z,23.9
2023-04-25T17:52:50.240Z,23.9
2023-04-25T17:55:16.878Z,23.9
2023-04-25T17:57:43.569Z,23.9
2023-04-25T18:00:10.258Z,23.9
2023-04-25T18:02:36.927Z,23.9
2023-04-25T18:05:03.629Z,23.9
2023-04-25T18:07:30.317Z,23.9
2023-04-25T18:09:55.537Z,23.9
2023-04-25T18:12:22.311Z,23.9
2023-04-25T18:14:48.911Z,23.9
2023-04-25T18:17:15.590Z,23.9
2023-04-25T18:22:08.956Z,23.9
2023-04-25T18:24:35.683Z,23.9
2023-04-25T18:27:02.456Z,23.9
2023-04-25T18:29:29.014Z,23.9
2023-04-25T18:34:22.382Z,23.9
2023-04-25T18:36:49.078Z,23.9
2023-04-25T18:39:15.771Z,23.9
2023-04-25T18:41:40.969Z,23.9
2023-04-25T18:44:07.656Z,23.9
2023-04-25T18:49:01.144Z,23.9
2023-04-25T18:51:26.272Z,23.9
2023-04-25T18:53:51.504Z,23.9
2023-04-25T18:56:18.185Z,23.9
2023-04-25T18:58:44.850Z,23.9
2023-04-25T19:01:11.542Z,23.9
2023-04-25T19:03:38.284Z,23.9
2023-04-25T19:06:04.956Z,23.9
2023-04-25T19:08:31.604Z,23.9
2023-04-25T19:10:58.298Z,23.9
2023-04-25T19:13:24.992Z,23.9
2023-04-25T19:15:51.659Z,23.9
2023-04-25T19:18:16.894Z,23.9
2023-04-25T19:20:42.121Z,23.9
2023-04-25T19:23:08.815Z,23.9
2023-04-25T19:25:35.479Z,23.9
2023-04-25T19:28:02.182Z,23.9
2023-04-25T19:30:28.997Z,23.9
2023-04-25T19:32:55.631Z,23.9
2023-04-25T19:35:22.216Z,23.9
2023-04-25T19:37:48.920Z,23.9
2023-04-25T19:40:15.596Z,23.9
2023-04-25T19:42:42.285Z,23.9
2023-04-25T19:45:08.972Z,23.9
2023-04-25T19:47:35.729Z,23.9
2023-04-25T19:50:02.353Z,23.9
2023-04-25T19:52:27.557Z,23.9
2023-04-25T19:54:54.247Z,23.9
2023-04-25T19:57:20.928Z,23.9
2023-04-25T19:59:47.634Z,23.9
2023-04-25T20:02:14.291Z,23.9
2023-04-25T20:04:40.980Z,23.9
2023-04-25T20:07:07.686Z,23.9
2023-04-25T20:09:34.347Z,23.9
2023-04-25T20:12:01.097Z,23.9
2023-04-25T20:14:27.726Z,23.9
2023-04-25T20:16:54.616Z,23.9
2023-04-25T20:19:21.199Z,23.9
2023-04-25T20:21:47.825Z,23.9
2023-04-25T20:24:13.000Z,23.9
2023-04-25T20:26:39.689Z,23.9
2023-04-25T20:31:33.062Z,23.9
2023-04-25T20:33:59.738Z,23.9
2023-04-25T20:36:26.443Z,23.9
2023-04-25T20:41:19.960Z,23.9
2023-04-25T20:43:46.622Z,23.9
2023-04-25T20:46:13.221Z,23.9
2023-04-25T20:48:39.940Z,23.9
2023-04-25T20:51:06.534Z,23.9
2023-04-25T20:53:33.244Z,23.9
2023-04-25T20:55:58.479Z,23.9
2023-04-25T20:58:25.140Z,23.9
2023-04-25T21:00:51.832Z,23.9
2023-04-25T21:03:18.577Z,23.9
2023-04-25T21:05:45.242Z,23.9
2023-04-25T21:08:11.911Z,23.9
2023-04-25T21:13:05.243Z,23.9
2023-04-25T21:15:30.552Z,23.9
2023-04-25T21:17:55.761Z,23.9
2023-04-25T21:20:22.494Z,23.9
2023-04-25T21:22:49.080Z,23.9
2023-04-25T21:25:15.763Z,23.9
2023-04-25T21:27:42.458Z,23.9
2023-04-25T21:30:09.151Z,23.9
2023-04-25T21:32:35.824Z,23.9
2023-04-25T21:35:02.515Z,23.9
2023-04-25T21:37:29.197Z,23.9
2023-04-25T21:39:55.989Z,23.9
2023-04-25T21:42:21.153Z,23.9
2023-04-25T21:44:47.817Z,23.9
2023-04-25T21:47:13.044Z,23.9
2023-04-25T21:49:39.735Z,23.9
2023-04-25T21:52:06.402Z,23.9
2023-04-25T21:54:33.112Z,23.9
2023-04-25T21:56:59.791Z,23.9
2023-04-25T21:59:26.462Z,23.9
2023-04-25T22:01:53.157Z,23.9
2023-04-25T22:04:19.864Z,23.9
2023-04-25T22:06:46.528Z,23.9
2023-04-25T22:09:13.196Z,23.9
2023-04-25T22:11:39.953Z,23.9
2023-04-25T22:14:06.589Z,23.9
2023-04-25T22:16:33.260Z,23.9
2023-04-25T22:18:58.636Z,23.9
2023-04-25T22:21:25.266Z,23.9
2023-04-25T22:23:51.847Z,23.9
2023-04-25T22:26:18.527Z,23.9
2023-04-25T22:28:45.333Z,23.9
2023-04-25T22:31:11.908Z,23.9
2023-04-25T22:33:38.604Z,23.9
2023-04-25T22:36:05.277Z,23.9
2023-04-25T22:38:32.017Z,23.9
2023-04-25T22:40:58.658Z,23.9
2023-04-25T22:43:25.310Z,23.9
2023-04-25T22:45:51.996Z,23.9
2023-04-25T22:48:18.678Z,23.9
2023-04-25T22:50:43.921Z,23.9
2023-04-25T22:53:10.673Z,23.9
2023-04-25T22:55:37.291Z,23.9
2023-04-25T22:58:03.968Z,23.9
2023-04-25T23:00:30.659Z,23.9
2023-04-25T23:02:57.332Z,23.9
2023-04-25T23:05:24.018Z,23.9
2023-04-25T23:07:50.707Z,23.9
2023-04-25T23:10:17.378Z,23.9
2023-04-25T23:12:44.097Z,23.9
2023-04-25T23:15:10.760Z,23.9
2023-04-25T23:17:37.438Z,23.9
2023-04-25T23:20:04.119Z,23.9
2023-04-25T23:22:30.807Z,23.9
2023-04-25T23:24:56.024Z,23.9
2023-04-25T23:27:22.738Z,23.9
2023-04-25T23:29:49.502Z,23.9
2023-04-25T23:32:16.081Z,23.9
2023-04-25T23:34:42.772Z,23.9
2023-04-25T23:37:09.458Z,23.9
2023-04-25T23:39:34.697Z,23.9
2023-04-25T23:42:01.381Z,23.9
2023-04-25T23:44:28.089Z,23.9
2023-04-25T23:46:54.747Z,23.9
2023-04-25T23:49:21.429Z,23.9
2023-04-25T23:51:48.111Z,23.9
2023-04-25T23:54:14.785Z,23.9
2023-04-25T23:56:41.502Z,23.9
2023-04-25T23:59:08.316Z,23.9
